sensor_id;sensor_type;location;lat;lon;timestamp;P1;durP1;ratioP1;P2;durP2;ratioP2
42332;SDS011;27984;51.476;5.702;2023-05-10T00:01:37;12.18;;;8.50;;
42332;SDS011;27984;51.476;5.702;2023-05-10T00:04:05;14.15;;;9.45;;
42332;SDS011;27984;51.476;5.702;2023-05-10T00:06:31;12.85;;;9.07;;
42332;SDS011;27984;51.476;5.702;2023-05-10T00:08:56;14.32;;;9.93;;
42332;SDS011;27984;51.476;5.702;2023-05-10T00:11:22;14.73;;;10.02;;
42332;SDS011;27984;51.476;5.702;2023-05-10T00:13:47;16.73;;;10.98;;
42332;SDS011;27984;51.476;5.702;2023-05-10T00:16:13;16.88;;;10.52;;
42332;SDS011;27984;51.476;5.702;2023-05-10T00:18:39;17.60;;;11.50;;
42332;SDS011;27984;51.476;5.702;2023-05-10T00:21:05;19.08;;;12.27;;
42332;SDS011;27984;51.476;5.702;2023-05-10T00:23:31;18.15;;;12.55;;
42332;SDS011;27984;51.476;5.702;2023-05-10T00:25:56;21.95;;;13.23;;
42332;SDS011;27984;51.476;5.702;2023-05-10T00:28:22;20.27;;;13.23;;
42332;SDS011;27984;51.476;5.702;2023-05-10T00:30:48;21.98;;;13.13;;
42332;SDS011;27984;51.476;5.702;2023-05-10T00:33:13;20.35;;;12.73;;
42332;SDS011;27984;51.476;5.702;2023-05-10T00:35:39;25.25;;;14.15;;
42332;SDS011;27984;51.476;5.702;2023-05-10T00:38:05;23.73;;;14.85;;
42332;SDS011;27984;51.476;5.702;2023-05-10T00:40:30;24.45;;;15.50;;
42332;SDS011;27984;51.476;5.702;2023-05-10T00:42:56;23.17;;;15.65;;
42332;SDS011;27984;51.476;5.702;2023-05-10T00:45:23;24.55;;;15.88;;
42332;SDS011;27984;51.476;5.702;2023-05-10T00:47:48;29.95;;;16.13;;
42332;SDS011;27984;51.476;5.702;2023-05-10T00:50:15;29.42;;;16.02;;
42332;SDS011;27984;51.476;5.702;2023-05-10T00:52:40;21.80;;;15.77;;
42332;SDS011;27984;51.476;5.702;2023-05-10T00:55:07;32.55;;;16.20;;
42332;SDS011;27984;51.476;5.702;2023-05-10T00:57:36;25.98;;;16.73;;
42332;SDS011;27984;51.476;5.702;2023-05-10T01:00:02;31.80;;;17.73;;
42332;SDS011;27984;51.476;5.702;2023-05-10T01:02:28;38.22;;;20.02;;
42332;SDS011;27984;51.476;5.702;2023-05-10T01:04:53;36.95;;;20.08;;
42332;SDS011;27984;51.476;5.702;2023-05-10T01:07:20;35.65;;;21.27;;
42332;SDS011;27984;51.476;5.702;2023-05-10T01:09:45;37.45;;;21.52;;
42332;SDS011;27984;51.476;5.702;2023-05-10T01:12:11;41.97;;;23.63;;
42332;SDS011;27984;51.476;5.702;2023-05-10T01:14:36;42.38;;;23.58;;
42332;SDS011;27984;51.476;5.702;2023-05-10T01:17:02;46.35;;;24.35;;
42332;SDS011;27984;51.476;5.702;2023-05-10T01:19:30;47.38;;;25.52;;
42332;SDS011;27984;51.476;5.702;2023-05-10T01:30:35;55.55;;;28.15;;
42332;SDS011;27984;51.476;5.702;2023-05-10T01:36:08;58.13;;;31.40;;
42332;SDS011;27984;51.476;5.702;2023-05-10T01:47:15;74.95;;;34.90;;
42332;SDS011;27984;51.476;5.702;2023-05-10T01:49:53;84.70;;;36.38;;
42332;SDS011;27984;51.476;5.702;2023-05-10T01:52:30;82.65;;;37.05;;
42332;SDS011;27984;51.476;5.702;2023-05-10T01:55:02;89.53;;;36.08;;
42332;SDS011;27984;51.476;5.702;2023-05-10T01:57:35;80.82;;;35.05;;
42332;SDS011;27984;51.476;5.702;2023-05-10T02:00:04;87.80;;;37.45;;
42332;SDS011;27984;51.476;5.702;2023-05-10T02:02:33;83.72;;;36.97;;
42332;SDS011;27984;51.476;5.702;2023-05-10T02:05:03;89.15;;;37.72;;
42332;SDS011;27984;51.476;5.702;2023-05-10T02:07:31;87.25;;;37.78;;
42332;SDS011;27984;51.476;5.702;2023-05-10T02:10:00;82.45;;;36.70;;
42332;SDS011;27984;51.476;5.702;2023-05-10T02:12:28;85.35;;;38.67;;
42332;SDS011;27984;51.476;5.702;2023-05-10T02:14:54;100.07;;;39.28;;
42332;SDS011;27984;51.476;5.702;2023-05-10T02:17:20;84.53;;;38.10;;
42332;SDS011;27984;51.476;5.702;2023-05-10T02:19:47;84.28;;;38.85;;
42332;SDS011;27984;51.476;5.702;2023-05-10T02:22:14;84.50;;;40.10;;
42332;SDS011;27984;51.476;5.702;2023-05-10T02:24:42;84.20;;;39.35;;
42332;SDS011;27984;51.476;5.702;2023-05-10T02:27:09;80.15;;;37.58;;
42332;SDS011;27984;51.476;5.702;2023-05-10T02:29:36;86.60;;;37.78;;
42332;SDS011;27984;51.476;5.702;2023-05-10T02:32:02;78.95;;;37.75;;
42332;SDS011;27984;51.476;5.702;2023-05-10T02:34:29;83.03;;;38.17;;
42332;SDS011;27984;51.476;5.702;2023-05-10T02:36:55;83.82;;;38.60;;
42332;SDS011;27984;51.476;5.702;2023-05-10T02:39:21;82.15;;;40.45;;
42332;SDS011;27984;51.476;5.702;2023-05-10T02:41:48;87.70;;;41.92;;
42332;SDS011;27984;51.476;5.702;2023-05-10T02:44:15;85.00;;;41.33;;
42332;SDS011;27984;51.476;5.702;2023-05-10T02:46:43;82.15;;;40.38;;
42332;SDS011;27984;51.476;5.702;2023-05-10T02:49:09;86.65;;;41.20;;
42332;SDS011;27984;51.476;5.702;2023-05-10T02:51:35;87.93;;;42.40;;
42332;SDS011;27984;51.476;5.702;2023-05-10T02:54:12;84.13;;;41.30;;
42332;SDS011;27984;51.476;5.702;2023-05-10T02:56:46;87.20;;;41.38;;
42332;SDS011;27984;51.476;5.702;2023-05-10T02:59:15;84.97;;;41.95;;
42332;SDS011;27984;51.476;5.702;2023-05-10T03:01:41;86.55;;;41.28;;
42332;SDS011;27984;51.476;5.702;2023-05-10T03:04:07;87.18;;;40.95;;
42332;SDS011;27984;51.476;5.702;2023-05-10T03:06:32;91.32;;;42.05;;
42332;SDS011;27984;51.476;5.702;2023-05-10T03:08:58;93.32;;;42.70;;
42332;SDS011;27984;51.476;5.702;2023-05-10T03:11:28;94.18;;;43.63;;
42332;SDS011;27984;51.476;5.702;2023-05-10T03:19:56;94.70;;;44.70;;
42332;SDS011;27984;51.476;5.702;2023-05-10T03:22:26;94.18;;;45.67;;
42332;SDS011;27984;51.476;5.702;2023-05-10T03:24:59;100.13;;;46.85;;
42332;SDS011;27984;51.476;5.702;2023-05-10T03:27:29;95.82;;;45.92;;
42332;SDS011;27984;51.476;5.702;2023-05-10T03:29:56;89.60;;;44.45;;
42332;SDS011;27984;51.476;5.702;2023-05-10T03:32:22;92.72;;;45.60;;
42332;SDS011;27984;51.476;5.702;2023-05-10T03:34:48;91.10;;;45.47;;
42332;SDS011;27984;51.476;5.702;2023-05-10T03:37:14;93.93;;;45.28;;
42332;SDS011;27984;51.476;5.702;2023-05-10T03:39:39;92.45;;;44.13;;
42332;SDS011;27984;51.476;5.702;2023-05-10T03:42:05;88.00;;;44.53;;
42332;SDS011;27984;51.476;5.702;2023-05-10T03:44:31;96.57;;;44.05;;
42332;SDS011;27984;51.476;5.702;2023-05-10T03:46:58;95.88;;;44.38;;
42332;SDS011;27984;51.476;5.702;2023-05-10T03:49:23;99.60;;;45.33;;
42332;SDS011;27984;51.476;5.702;2023-05-10T03:51:49;95.32;;;44.50;;
42332;SDS011;27984;51.476;5.702;2023-05-10T03:54:14;94.25;;;43.90;;
42332;SDS011;27984;51.476;5.702;2023-05-10T03:56:40;95.47;;;44.38;;
42332;SDS011;27984;51.476;5.702;2023-05-10T03:59:05;90.32;;;43.95;;
42332;SDS011;27984;51.476;5.702;2023-05-10T04:01:34;87.65;;;41.88;;
42332;SDS011;27984;51.476;5.702;2023-05-10T04:04:00;84.13;;;42.65;;
42332;SDS011;27984;51.476;5.702;2023-05-10T04:06:25;92.28;;;43.10;;
42332;SDS011;27984;51.476;5.702;2023-05-10T04:08:51;86.90;;;41.88;;
42332;SDS011;27984;51.476;5.702;2023-05-10T04:11:16;91.82;;;42.95;;
42332;SDS011;27984;51.476;5.702;2023-05-10T04:13:42;87.72;;;43.47;;
42332;SDS011;27984;51.476;5.702;2023-05-10T04:16:08;87.43;;;41.72;;
42332;SDS011;27984;51.476;5.702;2023-05-10T04:18:34;82.93;;;41.28;;
42332;SDS011;27984;51.476;5.702;2023-05-10T04:20:59;89.82;;;41.95;;
42332;SDS011;27984;51.476;5.702;2023-05-10T04:23:25;81.07;;;40.85;;
42332;SDS011;27984;51.476;5.702;2023-05-10T04:25:51;88.35;;;41.47;;
42332;SDS011;27984;51.476;5.702;2023-05-10T04:28:17;82.07;;;40.47;;
42332;SDS011;27984;51.476;5.702;2023-05-10T04:30:43;92.53;;;42.17;;
42332;SDS011;27984;51.476;5.702;2023-05-10T04:33:08;92.95;;;41.22;;
42332;SDS011;27984;51.476;5.702;2023-05-10T04:35:34;84.22;;;40.75;;
42332;SDS011;27984;51.476;5.702;2023-05-10T04:38:00;80.35;;;39.55;;
42332;SDS011;27984;51.476;5.702;2023-05-10T04:40:25;88.07;;;41.15;;
42332;SDS011;27984;51.476;5.702;2023-05-10T04:42:51;87.13;;;41.17;;
42332;SDS011;27984;51.476;5.702;2023-05-10T04:45:16;91.00;;;41.10;;
42332;SDS011;27984;51.476;5.702;2023-05-10T04:47:42;94.85;;;41.53;;
42332;SDS011;27984;51.476;5.702;2023-05-10T04:50:08;92.25;;;41.95;;
42332;SDS011;27984;51.476;5.702;2023-05-10T04:52:33;95.05;;;41.45;;
42332;SDS011;27984;51.476;5.702;2023-05-10T04:54:59;92.28;;;41.17;;
42332;SDS011;27984;51.476;5.702;2023-05-10T04:57:24;97.32;;;42.03;;
42332;SDS011;27984;51.476;5.702;2023-05-10T04:59:50;110.57;;;42.28;;
42332;SDS011;27984;51.476;5.702;2023-05-10T05:02:15;110.68;;;44.13;;
42332;SDS011;27984;51.476;5.702;2023-05-10T05:04:41;112.03;;;44.75;;
42332;SDS011;27984;51.476;5.702;2023-05-10T05:07:06;122.13;;;47.30;;
42332;SDS011;27984;51.476;5.702;2023-05-10T05:09:32;129.25;;;50.25;;
42332;SDS011;27984;51.476;5.702;2023-05-10T05:11:58;133.82;;;51.83;;
42332;SDS011;27984;51.476;5.702;2023-05-10T05:14:23;119.28;;;52.08;;
42332;SDS011;27984;51.476;5.702;2023-05-10T05:16:50;121.68;;;51.00;;
42332;SDS011;27984;51.476;5.702;2023-05-10T05:19:16;125.03;;;52.47;;
42332;SDS011;27984;51.476;5.702;2023-05-10T05:21:42;120.93;;;51.47;;
42332;SDS011;27984;51.476;5.702;2023-05-10T05:24:07;120.53;;;50.10;;
42332;SDS011;27984;51.476;5.702;2023-05-10T05:26:33;114.10;;;48.95;;
42332;SDS011;27984;51.476;5.702;2023-05-10T05:28:59;107.82;;;46.55;;
42332;SDS011;27984;51.476;5.702;2023-05-10T05:31:24;104.05;;;43.97;;
42332;SDS011;27984;51.476;5.702;2023-05-10T05:33:50;91.50;;;41.67;;
42332;SDS011;27984;51.476;5.702;2023-05-10T05:36:15;83.13;;;40.50;;
42332;SDS011;27984;51.476;5.702;2023-05-10T05:38:41;87.05;;;40.45;;
42332;SDS011;27984;51.476;5.702;2023-05-10T05:41:07;78.35;;;37.50;;
42332;SDS011;27984;51.476;5.702;2023-05-10T05:43:33;84.97;;;38.60;;
42332;SDS011;27984;51.476;5.702;2023-05-10T05:45:59;82.00;;;38.63;;
42332;SDS011;27984;51.476;5.702;2023-05-10T05:48:28;80.13;;;39.20;;
42332;SDS011;27984;51.476;5.702;2023-05-10T05:51:53;81.22;;;36.22;;
42332;SDS011;27984;51.476;5.702;2023-05-10T05:54:37;71.68;;;36.17;;
42332;SDS011;27984;51.476;5.702;2023-05-10T05:57:02;80.53;;;39.17;;
42332;SDS011;27984;51.476;5.702;2023-05-10T05:59:28;67.85;;;36.50;;
42332;SDS011;27984;51.476;5.702;2023-05-10T06:01:53;73.43;;;37.50;;
42332;SDS011;27984;51.476;5.702;2023-05-10T06:04:19;70.35;;;36.53;;
42332;SDS011;27984;51.476;5.702;2023-05-10T06:06:44;70.63;;;37.05;;
42332;SDS011;27984;51.476;5.702;2023-05-10T06:09:10;66.38;;;35.00;;
42332;SDS011;27984;51.476;5.702;2023-05-10T06:11:36;70.70;;;35.72;;
42332;SDS011;27984;51.476;5.702;2023-05-10T06:14:02;59.70;;;31.08;;
42332;SDS011;27984;51.476;5.702;2023-05-10T06:16:32;61.15;;;32.13;;
42332;SDS011;27984;51.476;5.702;2023-05-10T06:19:01;61.88;;;33.78;;
42332;SDS011;27984;51.476;5.702;2023-05-10T06:21:27;58.92;;;31.98;;
42332;SDS011;27984;51.476;5.702;2023-05-10T06:23:52;64.35;;;33.00;;
42332;SDS011;27984;51.476;5.702;2023-05-10T06:26:18;58.30;;;31.20;;
42332;SDS011;27984;51.476;5.702;2023-05-10T06:28:43;53.58;;;30.30;;
42332;SDS011;27984;51.476;5.702;2023-05-10T06:31:09;46.90;;;27.77;;
42332;SDS011;27984;51.476;5.702;2023-05-10T06:33:36;49.65;;;29.50;;
42332;SDS011;27984;51.476;5.702;2023-05-10T06:36:01;53.47;;;28.60;;
42332;SDS011;27984;51.476;5.702;2023-05-10T06:38:27;50.67;;;28.60;;
42332;SDS011;27984;51.476;5.702;2023-05-10T06:40:53;47.35;;;26.98;;
42332;SDS011;27984;51.476;5.702;2023-05-10T06:43:18;46.50;;;26.85;;
42332;SDS011;27984;51.476;5.702;2023-05-10T06:45:44;41.90;;;25.48;;
42332;SDS011;27984;51.476;5.702;2023-05-10T06:48:09;46.00;;;26.88;;
42332;SDS011;27984;51.476;5.702;2023-05-10T06:50:35;46.50;;;27.42;;
42332;SDS011;27984;51.476;5.702;2023-05-10T06:53:00;42.85;;;26.48;;
42332;SDS011;27984;51.476;5.702;2023-05-10T06:55:26;43.17;;;25.70;;
42332;SDS011;27984;51.476;5.702;2023-05-10T06:57:52;43.63;;;25.30;;
42332;SDS011;27984;51.476;5.702;2023-05-10T07:00:18;47.33;;;26.73;;
42332;SDS011;27984;51.476;5.702;2023-05-10T07:02:44;47.17;;;27.08;;
42332;SDS011;27984;51.476;5.702;2023-05-10T07:05:10;46.88;;;27.48;;
42332;SDS011;27984;51.476;5.702;2023-05-10T07:07:36;45.72;;;26.88;;
42332;SDS011;27984;51.476;5.702;2023-05-10T07:10:02;45.17;;;27.17;;
42332;SDS011;27984;51.476;5.702;2023-05-10T07:12:27;41.63;;;26.15;;
42332;SDS011;27984;51.476;5.702;2023-05-10T07:14:53;44.22;;;26.83;;
42332;SDS011;27984;51.476;5.702;2023-05-10T07:17:18;41.67;;;25.92;;
42332;SDS011;27984;51.476;5.702;2023-05-10T07:19:44;43.88;;;25.95;;
42332;SDS011;27984;51.476;5.702;2023-05-10T07:22:10;48.08;;;27.17;;
42332;SDS011;27984;51.476;5.702;2023-05-10T07:24:36;46.00;;;27.17;;
42332;SDS011;27984;51.476;5.702;2023-05-10T07:27:01;43.50;;;27.90;;
42332;SDS011;27984;51.476;5.702;2023-05-10T07:29:27;45.17;;;28.25;;
42332;SDS011;27984;51.476;5.702;2023-05-10T07:31:53;45.53;;;27.88;;
42332;SDS011;27984;51.476;5.702;2023-05-10T07:34:19;46.53;;;28.17;;
42332;SDS011;27984;51.476;5.702;2023-05-10T07:36:44;43.55;;;28.10;;
42332;SDS011;27984;51.476;5.702;2023-05-10T07:39:10;47.10;;;30.23;;
42332;SDS011;27984;51.476;5.702;2023-05-10T07:41:35;45.20;;;28.00;;
42332;SDS011;27984;51.476;5.702;2023-05-10T07:44:02;47.15;;;28.95;;
42332;SDS011;27984;51.476;5.702;2023-05-10T07:46:28;49.17;;;29.40;;
42332;SDS011;27984;51.476;5.702;2023-05-10T07:48:54;48.13;;;28.88;;
42332;SDS011;27984;51.476;5.702;2023-05-10T07:51:19;46.28;;;28.38;;
42332;SDS011;27984;51.476;5.702;2023-05-10T07:53:45;44.83;;;27.17;;
42332;SDS011;27984;51.476;5.702;2023-05-10T07:58:46;44.15;;;27.38;;
42332;SDS011;27984;51.476;5.702;2023-05-10T08:01:12;38.58;;;26.80;;
42332;SDS011;27984;51.476;5.702;2023-05-10T08:03:37;41.42;;;27.85;;
42332;SDS011;27984;51.476;5.702;2023-05-10T08:06:03;48.33;;;29.17;;
42332;SDS011;27984;51.476;5.702;2023-05-10T08:08:29;43.28;;;27.48;;
42332;SDS011;27984;51.476;5.702;2023-05-10T08:10:54;47.28;;;28.88;;
42332;SDS011;27984;51.476;5.702;2023-05-10T08:13:20;42.15;;;27.40;;
42332;SDS011;27984;51.476;5.702;2023-05-10T08:15:46;45.65;;;27.75;;
42332;SDS011;27984;51.476;5.702;2023-05-10T08:18:12;42.60;;;27.90;;
42332;SDS011;27984;51.476;5.702;2023-05-10T08:20:37;40.70;;;26.45;;
42332;SDS011;27984;51.476;5.702;2023-05-10T08:23:03;43.80;;;27.10;;
42332;SDS011;27984;51.476;5.702;2023-05-10T08:25:28;42.53;;;24.45;;
42332;SDS011;27984;51.476;5.702;2023-05-10T08:27:54;35.50;;;23.45;;
42332;SDS011;27984;51.476;5.702;2023-05-10T08:30:19;36.80;;;23.80;;
42332;SDS011;27984;51.476;5.702;2023-05-10T08:32:45;30.63;;;20.13;;
42332;SDS011;27984;51.476;5.702;2023-05-10T08:35:10;29.80;;;19.83;;
42332;SDS011;27984;51.476;5.702;2023-05-10T08:37:36;29.02;;;18.83;;
42332;SDS011;27984;51.476;5.702;2023-05-10T08:40:01;29.73;;;18.77;;
42332;SDS011;27984;51.476;5.702;2023-05-10T08:42:28;31.60;;;17.73;;
42332;SDS011;27984;51.476;5.702;2023-05-10T08:44:59;28.23;;;16.83;;
42332;SDS011;27984;51.476;5.702;2023-05-10T08:47:27;25.13;;;15.55;;
42332;SDS011;27984;51.476;5.702;2023-05-10T08:49:54;31.30;;;16.08;;
42332;SDS011;27984;51.476;5.702;2023-05-10T08:52:20;25.38;;;14.82;;
42332;SDS011;27984;51.476;5.702;2023-05-10T08:54:48;18.52;;;12.40;;
42332;SDS011;27984;51.476;5.702;2023-05-10T08:57:14;14.63;;;10.52;;
42332;SDS011;27984;51.476;5.702;2023-05-10T08:59:40;15.40;;;10.63;;
42332;SDS011;27984;51.476;5.702;2023-05-10T09:02:06;17.08;;;10.40;;
42332;SDS011;27984;51.476;5.702;2023-05-10T09:04:35;17.10;;;10.10;;
42332;SDS011;27984;51.476;5.702;2023-05-10T09:07:00;17.50;;;9.45;;
42332;SDS011;27984;51.476;5.702;2023-05-10T09:09:26;13.60;;;8.20;;
42332;SDS011;27984;51.476;5.702;2023-05-10T09:11:52;14.88;;;8.07;;
42332;SDS011;27984;51.476;5.702;2023-05-10T09:14:18;11.77;;;7.90;;
42332;SDS011;27984;51.476;5.702;2023-05-10T09:16:45;17.10;;;8.32;;
42332;SDS011;27984;51.476;5.702;2023-05-10T09:19:10;13.60;;;8.60;;
42332;SDS011;27984;51.476;5.702;2023-05-10T09:21:36;19.80;;;8.35;;
42332;SDS011;27984;51.476;5.702;2023-05-10T09:24:06;16.30;;;8.18;;
42332;SDS011;27984;51.476;5.702;2023-05-10T09:26:32;15.18;;;7.85;;
42332;SDS011;27984;51.476;5.702;2023-05-10T09:29:00;11.35;;;7.40;;
42332;SDS011;27984;51.476;5.702;2023-05-10T09:31:43;11.52;;;7.88;;
42332;SDS011;27984;51.476;5.702;2023-05-10T09:34:15;15.02;;;8.70;;
42332;SDS011;27984;51.476;5.702;2023-05-10T09:36:52;13.32;;;7.72;;
42332;SDS011;27984;51.476;5.702;2023-05-10T09:39:19;16.98;;;8.95;;
42332;SDS011;27984;51.476;5.702;2023-05-10T09:41:44;9.15;;;7.88;;
42332;SDS011;27984;51.476;5.702;2023-05-10T09:44:10;12.38;;;8.10;;
42332;SDS011;27984;51.476;5.702;2023-05-10T09:46:36;9.18;;;6.32;;
42332;SDS011;27984;51.476;5.702;2023-05-10T09:49:02;9.18;;;6.53;;
42332;SDS011;27984;51.476;5.702;2023-05-10T09:51:27;10.02;;;6.00;;
42332;SDS011;27984;51.476;5.702;2023-05-10T09:54:14;8.52;;;5.90;;
42332;SDS011;27984;51.476;5.702;2023-05-10T09:56:41;8.38;;;5.53;;
42332;SDS011;27984;51.476;5.702;2023-05-10T09:59:09;10.60;;;5.97;;
42332;SDS011;27984;51.476;5.702;2023-05-10T10:01:36;8.13;;;5.75;;
42332;SDS011;27984;51.476;5.702;2023-05-10T10:04:05;7.60;;;5.65;;
42332;SDS011;27984;51.476;5.702;2023-05-10T10:06:39;4.80;;;3.85;;
42332;SDS011;27984;51.476;5.702;2023-05-10T10:09:05;8.15;;;4.30;;
42332;SDS011;27984;51.476;5.702;2023-05-10T10:11:34;11.73;;;4.90;;
42332;SDS011;27984;51.476;5.702;2023-05-10T10:14:01;6.63;;;4.97;;
42332;SDS011;27984;51.476;5.702;2023-05-10T10:16:27;7.57;;;4.85;;
42332;SDS011;27984;51.476;5.702;2023-05-10T10:18:54;7.00;;;5.03;;
42332;SDS011;27984;51.476;5.702;2023-05-10T10:21:20;10.10;;;6.22;;
42332;SDS011;27984;51.476;5.702;2023-05-10T10:23:47;9.05;;;6.50;;
42332;SDS011;27984;51.476;5.702;2023-05-10T10:26:12;9.35;;;7.13;;
42332;SDS011;27984;51.476;5.702;2023-05-10T10:28:47;12.70;;;7.32;;
42332;SDS011;27984;51.476;5.702;2023-05-10T10:31:34;10.95;;;7.78;;
42332;SDS011;27984;51.476;5.702;2023-05-10T10:34:06;11.27;;;7.88;;
42332;SDS011;27984;51.476;5.702;2023-05-10T10:36:39;15.40;;;8.15;;
42332;SDS011;27984;51.476;5.702;2023-05-10T10:39:10;12.43;;;8.32;;
42332;SDS011;27984;51.476;5.702;2023-05-10T10:41:36;11.35;;;7.97;;
42332;SDS011;27984;51.476;5.702;2023-05-10T10:47:36;12.67;;;9.30;;
42332;SDS011;27984;51.476;5.702;2023-05-10T10:52:21;12.48;;;8.70;;
42332;SDS011;27984;51.476;5.702;2023-05-10T10:54:57;10.38;;;8.95;;
42332;SDS011;27984;51.476;5.702;2023-05-10T10:57:42;12.77;;;8.43;;
42332;SDS011;27984;51.476;5.702;2023-05-10T11:00:20;13.40;;;8.13;;
42332;SDS011;27984;51.476;5.702;2023-05-10T11:02:51;12.30;;;8.52;;
42332;SDS011;27984;51.476;5.702;2023-05-10T11:07:54;13.43;;;7.10;;
42332;SDS011;27984;51.476;5.702;2023-05-10T11:10:24;11.50;;;7.22;;
42332;SDS011;27984;51.476;5.702;2023-05-10T11:12:51;7.18;;;6.43;;
42332;SDS011;27984;51.476;5.702;2023-05-10T11:15:39;6.80;;;5.47;;
42332;SDS011;27984;51.476;5.702;2023-05-10T11:18:17;6.97;;;5.50;;
42332;SDS011;27984;51.476;5.702;2023-05-10T11:20:44;8.30;;;5.53;;
42332;SDS011;27984;51.476;5.702;2023-05-10T11:26:07;5.45;;;4.45;;
42332;SDS011;27984;51.476;5.702;2023-05-10T11:28:42;8.10;;;4.80;;
42332;SDS011;27984;51.476;5.702;2023-05-10T11:31:13;7.60;;;5.95;;
42332;SDS011;27984;51.476;5.702;2023-05-10T11:33:43;12.80;;;8.65;;
42332;SDS011;27984;51.476;5.702;2023-05-10T11:36:16;18.50;;;10.57;;
42332;SDS011;27984;51.476;5.702;2023-05-10T11:38:44;15.55;;;12.23;;
42332;SDS011;27984;51.476;5.702;2023-05-10T11:41:10;20.08;;;13.05;;
42332;SDS011;27984;51.476;5.702;2023-05-10T11:43:37;15.45;;;13.10;;
42332;SDS011;27984;51.476;5.702;2023-05-10T11:46:05;17.05;;;13.95;;
42332;SDS011;27984;51.476;5.702;2023-05-10T11:48:41;14.25;;;11.85;;
42332;SDS011;27984;51.476;5.702;2023-05-10T11:51:07;13.70;;;10.95;;
42332;SDS011;27984;51.476;5.702;2023-05-10T11:53:33;15.55;;;11.63;;
42332;SDS011;27984;51.476;5.702;2023-05-10T11:56:06;13.88;;;11.70;;
42332;SDS011;27984;51.476;5.702;2023-05-10T11:58:33;12.65;;;10.77;;
42332;SDS011;27984;51.476;5.702;2023-05-10T12:00:59;13.57;;;11.00;;
42332;SDS011;27984;51.476;5.702;2023-05-10T12:03:25;14.00;;;11.25;;
42332;SDS011;27984;51.476;5.702;2023-05-10T12:05:51;13.88;;;11.52;;
42332;SDS011;27984;51.476;5.702;2023-05-10T12:08:20;11.68;;;10.23;;
42332;SDS011;27984;51.476;5.702;2023-05-10T12:10:50;14.10;;;10.40;;
42332;SDS011;27984;51.476;5.702;2023-05-10T12:13:16;14.05;;;10.63;;
42332;SDS011;27984;51.476;5.702;2023-05-10T12:15:43;13.40;;;10.75;;
42332;SDS011;27984;51.476;5.702;2023-05-10T12:18:09;15.15;;;11.07;;
42332;SDS011;27984;51.476;5.702;2023-05-10T12:20:36;17.75;;;12.63;;
42332;SDS011;27984;51.476;5.702;2023-05-10T12:23:02;19.80;;;13.77;;
42332;SDS011;27984;51.476;5.702;2023-05-10T12:25:37;20.30;;;12.63;;
42332;SDS011;27984;51.476;5.702;2023-05-10T12:30:31;14.60;;;11.02;;
42332;SDS011;27984;51.476;5.702;2023-05-10T12:33:13;11.77;;;10.48;;
42332;SDS011;27984;51.476;5.702;2023-05-10T12:41:02;13.75;;;9.77;;
42332;SDS011;27984;51.476;5.702;2023-05-10T12:43:28;11.15;;;8.80;;
42332;SDS011;27984;51.476;5.702;2023-05-10T12:45:54;13.57;;;9.30;;
42332;SDS011;27984;51.476;5.702;2023-05-10T12:48:20;11.40;;;9.15;;
42332;SDS011;27984;51.476;5.702;2023-05-10T12:50:46;11.38;;;10.07;;
42332;SDS011;27984;51.476;5.702;2023-05-10T12:53:13;13.00;;;10.65;;
42332;SDS011;27984;51.476;5.702;2023-05-10T12:55:40;14.93;;;10.68;;
42332;SDS011;27984;51.476;5.702;2023-05-10T12:58:06;13.02;;;11.02;;
42332;SDS011;27984;51.476;5.702;2023-05-10T13:00:32;15.40;;;11.20;;
42332;SDS011;27984;51.476;5.702;2023-05-10T13:02:57;17.35;;;11.38;;
42332;SDS011;27984;51.476;5.702;2023-05-10T13:05:23;15.02;;;11.20;;
42332;SDS011;27984;51.476;5.702;2023-05-10T13:07:48;15.80;;;12.73;;
42332;SDS011;27984;51.476;5.702;2023-05-10T13:10:14;18.58;;;12.57;;
42332;SDS011;27984;51.476;5.702;2023-05-10T13:12:39;16.38;;;12.48;;
42332;SDS011;27984;51.476;5.702;2023-05-10T13:15:05;22.10;;;16.55;;
42332;SDS011;27984;51.476;5.702;2023-05-10T13:17:31;22.58;;;16.42;;
42332;SDS011;27984;51.476;5.702;2023-05-10T13:19:57;20.73;;;15.80;;
42332;SDS011;27984;51.476;5.702;2023-05-10T13:22:22;23.17;;;15.90;;
42332;SDS011;27984;51.476;5.702;2023-05-10T13:24:48;20.63;;;15.30;;
42332;SDS011;27984;51.476;5.702;2023-05-10T13:27:13;16.35;;;13.30;;
42332;SDS011;27984;51.476;5.702;2023-05-10T13:29:39;17.50;;;13.15;;
42332;SDS011;27984;51.476;5.702;2023-05-10T13:32:04;15.38;;;12.95;;
42332;SDS011;27984;51.476;5.702;2023-05-10T13:34:30;14.25;;;11.88;;
42332;SDS011;27984;51.476;5.702;2023-05-10T13:36:55;13.68;;;10.85;;
42332;SDS011;27984;51.476;5.702;2023-05-10T13:39:21;11.57;;;9.38;;
42332;SDS011;27984;51.476;5.702;2023-05-10T13:41:47;12.55;;;9.70;;
42332;SDS011;27984;51.476;5.702;2023-05-10T13:44:13;11.50;;;9.25;;
42332;SDS011;27984;51.476;5.702;2023-05-10T13:46:40;9.80;;;8.32;;
42332;SDS011;27984;51.476;5.702;2023-05-10T13:49:06;11.63;;;7.68;;
42332;SDS011;27984;51.476;5.702;2023-05-10T13:51:32;7.60;;;6.90;;
42332;SDS011;27984;51.476;5.702;2023-05-10T13:53:58;7.90;;;7.13;;
42332;SDS011;27984;51.476;5.702;2023-05-10T13:56:24;7.55;;;6.72;;
42332;SDS011;27984;51.476;5.702;2023-05-10T13:58:49;9.65;;;8.02;;
42332;SDS011;27984;51.476;5.702;2023-05-10T14:01:15;9.13;;;8.15;;
42332;SDS011;27984;51.476;5.702;2023-05-10T14:03:40;9.77;;;8.75;;
42332;SDS011;27984;51.476;5.702;2023-05-10T14:06:06;9.77;;;8.77;;
42332;SDS011;27984;51.476;5.702;2023-05-10T14:08:33;12.93;;;10.43;;
42332;SDS011;27984;51.476;5.702;2023-05-10T14:10:59;10.60;;;9.68;;
42332;SDS011;27984;51.476;5.702;2023-05-10T14:13:25;13.15;;;11.75;;
42332;SDS011;27984;51.476;5.702;2023-05-10T14:15:50;12.63;;;11.30;;
42332;SDS011;27984;51.476;5.702;2023-05-10T14:18:17;11.73;;;10.50;;
42332;SDS011;27984;51.476;5.702;2023-05-10T14:20:42;11.75;;;10.57;;
42332;SDS011;27984;51.476;5.702;2023-05-10T14:23:08;17.70;;;13.35;;
42332;SDS011;27984;51.476;5.702;2023-05-10T14:25:34;14.27;;;12.23;;
42332;SDS011;27984;51.476;5.702;2023-05-10T14:27:59;16.77;;;13.88;;
42332;SDS011;27984;51.476;5.702;2023-05-10T14:30:25;18.10;;;14.45;;
42332;SDS011;27984;51.476;5.702;2023-05-10T14:32:50;18.23;;;15.10;;
42332;SDS011;27984;51.476;5.702;2023-05-10T14:35:17;23.67;;;16.63;;
42332;SDS011;27984;51.476;5.702;2023-05-10T14:37:43;21.33;;;16.90;;
42332;SDS011;27984;51.476;5.702;2023-05-10T14:40:08;22.10;;;16.92;;
42332;SDS011;27984;51.476;5.702;2023-05-10T14:42:34;23.00;;;18.17;;
42332;SDS011;27984;51.476;5.702;2023-05-10T14:45:00;26.50;;;19.00;;
42332;SDS011;27984;51.476;5.702;2023-05-10T14:47:25;22.08;;;17.63;;
42332;SDS011;27984;51.476;5.702;2023-05-10T14:49:51;25.58;;;17.95;;
42332;SDS011;27984;51.476;5.702;2023-05-10T14:52:16;23.20;;;16.85;;
42332;SDS011;27984;51.476;5.702;2023-05-10T14:54:42;23.52;;;16.35;;
42332;SDS011;27984;51.476;5.702;2023-05-10T14:57:07;29.23;;;17.55;;
42332;SDS011;27984;51.476;5.702;2023-05-10T14:59:33;26.42;;;17.83;;
42332;SDS011;27984;51.476;5.702;2023-05-10T15:01:58;25.38;;;17.70;;
42332;SDS011;27984;51.476;5.702;2023-05-10T15:04:24;28.65;;;18.77;;
42332;SDS011;27984;51.476;5.702;2023-05-10T15:06:50;23.20;;;17.83;;
42332;SDS011;27984;51.476;5.702;2023-05-10T15:09:15;23.98;;;17.90;;
42332;SDS011;27984;51.476;5.702;2023-05-10T15:11:41;21.60;;;16.77;;
42332;SDS011;27984;51.476;5.702;2023-05-10T15:14:06;22.00;;;17.70;;